Terminal Aerodrome Forecast
Issued by NWS

Home | Current Version | Previous Version | Text Only | Print | Product List | Glossary On
Versions: 1 2 3 4 5 6 7 8 9 10 11 12 13 14 15 16
000
FTUS44 KTSA 191300 AAA
TAFBVO
TAF AMD
KBVO 191302Z 1913/2012 00000KT 4SM BR SKC
     FM191500 18012G18KT P6SM SCT250
     FM200100 18006KT P6SM SCT250
     FM200600 19005KT P6SM BKN150=

USA.gov is the U.S. government's official web portal to all federal, state and local government web resources and services.